Time;durP1;ratioP1;P1;durP2;ratioP2;P2;SDS_P1;SDS_P2;PMS_P1;PMS_P2;Temp;Humidity;BMP_temperature;BMP_pressure;BME280_temperature;BME280_humidity;BME280_pressure;Samples;Min_cycle;Max_cycle;Signal;HPM_P1;HPM_P2
2023/06/28 00:01:00;;;;;;;6.45;1.77;;;20.30;60.20;;;;;;5055934;28;20039;-65
2023/06/28 00:03:26;;;;;;;7.30;1.80;;;20.20;60.20;;;;;;5072585;28;20050;-65
2023/06/28 00:05:52;;;;;;;6.50;2.00;;;20.20;60.30;;;;;;5073347;28;20477;-65
2023/06/28 00:08:19;;;;;;;6.13;1.92;;;20.20;60.20;;;;;;5073963;28;20111;-65
2023/06/28 00:10:44;;;;;;;6.05;1.75;;;20.20;60.30;;;;;;5069258;28;20028;-65
2023/06/28 00:13:10;;;;;;;6.82;2.30;;;20.20;60.30;;;;;;5072368;28;20050;-65
2023/06/28 00:15:36;;;;;;;3.95;1.77;;;20.20;60.30;;;;;;5072211;28;20059;-66
2023/06/28 00:18:02;;;;;;;6.40;2.08;;;20.20;60.50;;;;;;5074282;28;20060;-65
2023/06/28 00:20:29;;;;;;;7.28;2.00;;;20.10;60.50;;;;;;5071024;28;20032;-65
2023/06/28 00:22:55;;;;;;;6.63;2.25;;;20.10;60.50;;;;;;5073781;28;20066;-65
2023/06/28 00:25:21;;;;;;;5.70;2.00;;;20.10;60.60;;;;;;5034811;28;20028;-65
2023/06/28 00:27:47;;;;;;;6.25;1.67;;;20.10;60.70;;;;;;5072357;28;20024;-65
2023/06/28 00:30:13;;;;;;;6.25;2.00;;;20.00;60.80;;;;;;5054393;28;20028;-65
2023/06/28 00:32:39;;;;;;;6.43;1.90;;;20.00;60.90;;;;;;5055580;28;20082;-65
2023/06/28 00:35:06;;;;;;;5.63;2.03;;;20.00;61.00;;;;;;5071374;28;20101;-65
2023/06/28 00:37:32;;;;;;;6.10;2.30;;;20.00;61.10;;;;;;5072863;28;20028;-65
2023/06/28 00:39:59;;;;;;;5.25;1.90;;;20.00;61.20;;;;;;5072648;28;20021;-65
2023/06/28 00:42:24;;;;;;;6.85;2.20;;;20.10;61.40;;;;;;5054423;28;20055;-65
2023/06/28 00:44:50;;;;;;;5.05;1.83;;;20.10;61.40;;;;;;5054857;28;20028;-65
2023/06/28 00:47:18;;;;;;;6.50;1.80;;;20.00;61.40;;;;;;5071664;28;20089;-65
2023/06/28 00:49:45;;;;;;;7.05;2.20;;;20.00;61.50;;;;;;5055336;28;20462;-65
2023/06/28 00:52:12;;;;;;;8.30;2.60;;;20.00;61.40;;;;;;5054326;28;20109;-65
2023/06/28 00:54:39;;;;;;;7.35;1.70;;;20.00;61.40;;;;;;5072740;28;20334;-65
2023/06/28 00:57:05;;;;;;;5.90;2.15;;;20.00;61.20;;;;;;5071725;28;20025;-65
2023/06/28 00:59:31;;;;;;;6.82;2.15;;;20.00;61.20;;;;;;5055086;28;20518;-65
2023/06/28 01:01:57;;;;;;;4.47;1.60;;;20.00;61.10;;;;;;5071209;28;20111;-65
2023/06/28 01:04:22;;;;;;;4.03;1.77;;;20.00;61.20;;;;;;5038886;28;20031;-65
2023/06/28 01:06:53;;;;;;;4.72;1.83;;;19.90;61.20;;;;;;5067806;28;20060;-65
2023/06/28 01:09:24;;;;;;;7.75;2.10;;;20.00;61.40;;;;;;5037072;28;20032;-65
2023/06/28 01:11:51;;;;;;;;;;;20.00;61.40;;;;;;5072947;28;20047;-65
2023/06/28 01:14:18;;;;;;;5.20;1.60;;;19.90;61.30;;;;;;5055185;28;19927;-65
2023/06/28 01:16:54;;;;;;;6.53;2.05;;;19.90;61.40;;;;;;5053428;28;20112;-65
2023/06/28 01:19:25;;;;;;;4.38;2.00;;;19.90;61.40;;;;;;5073303;28;20021;-65
2023/06/28 01:22:01;;;;;;;5.55;2.30;;;19.90;61.50;;;;;;5054840;28;20101;-65
2023/06/28 01:24:28;;;;;;;8.00;2.10;;;19.90;61.60;;;;;;5038911;28;20116;-65
2023/06/28 01:26:58;;;;;;;7.88;2.03;;;19.90;61.50;;;;;;5053156;28;20340;-65
2023/06/28 01:29:24;;;;;;;4.93;1.80;;;19.90;61.50;;;;;;5055486;28;20094;-65
2023/06/28 01:31:55;;;;;;;5.75;1.90;;;19.90;61.50;;;;;;5071418;28;20331;-65
2023/06/28 01:34:24;;;;;;;7.50;2.30;;;19.90;61.70;;;;;;5055359;28;20093;-65
2023/06/28 01:36:54;;;;;;;5.75;1.95;;;19.90;61.80;;;;;;5071008;28;20452;-65
2023/06/28 01:39:21;;;;;;;5.15;1.92;;;19.90;61.90;;;;;;5076247;28;20025;-65
2023/06/28 01:41:48;;;;;;;5.43;2.03;;;19.90;62.10;;;;;;5057168;28;20017;-65
2023/06/28 01:44:16;;;;;;;6.55;2.10;;;19.90;62.30;;;;;;5050730;28;20025;-65
2023/06/28 01:46:43;;;;;;;5.82;2.10;;;19.90;62.40;;;;;;5074804;28;20024;-65
2023/06/28 01:49:09;;;;;;;6.22;1.95;;;19.80;62.60;;;;;;5057892;28;20158;-65
2023/06/28 01:51:36;;;;;;;6.57;1.83;;;19.80;62.80;;;;;;5055568;28;20373;-65
2023/06/28 01:54:03;;;;;;;6.10;2.03;;;19.80;63.00;;;;;;5056668;28;20031;-64
2023/06/28 01:56:29;;;;;;;5.45;1.60;;;19.80;63.20;;;;;;5075992;28;20031;-64
2023/06/28 01:58:56;;;;;;;5.57;1.90;;;19.80;63.40;;;;;;5054458;28;20031;-64
2023/06/28 02:01:22;;;;;;;6.70;1.77;;;19.70;63.60;;;;;;5041257;28;20127;-65
2023/06/28 02:03:47;;;;;;;6.75;2.08;;;19.70;63.90;;;;;;5075824;28;20345;-65
2023/06/28 02:06:14;;;;;;;7.03;2.25;;;19.70;64.20;;;;;;5058112;28;20032;-65
2023/06/28 02:08:40;;;;;;;5.35;1.80;;;19.60;64.40;;;;;;5055714;28;20056;-65
2023/06/28 02:11:06;;;;;;;6.07;2.22;;;19.70;64.80;;;;;;5076464;28;20060;-65
2023/06/28 02:13:31;;;;;;;5.63;1.58;;;19.60;64.80;;;;;;5057813;28;20024;-65
2023/06/28 02:15:58;;;;;;;4.68;1.90;;;19.60;65.00;;;;;;5058603;28;20029;-65
2023/06/28 02:18:26;;;;;;;5.80;1.85;;;19.60;65.10;;;;;;5074595;28;20345;-65
2023/06/28 02:21:30;;;;;;;5.82;1.73;;;19.50;65.30;;;;;;5075626;28;20021;-65
2023/06/28 02:23:55;;;;;;;5.05;2.33;;;19.50;65.60;;;;;;5074102;28;20024;-65
2023/06/28 02:26:21;;;;;;;6.07;2.28;;;19.50;65.80;;;;;;5076083;28;20021;-65
2023/06/28 02:28:47;;;;;;;6.25;1.92;;;19.50;66.10;;;;;;5057159;28;20135;-65
2023/06/28 02:31:16;;;;;;;4.15;1.52;;;19.50;66.40;;;;;;5074461;28;20028;-66
2023/06/28 02:33:42;;;;;;;4.82;1.90;;;19.40;66.40;;;;;;5055517;28;20430;-65
2023/06/28 02:37:03;;;;;;;5.45;1.83;;;19.40;66.70;;;;;;5058874;28;20147;-65
2023/06/28 02:39:29;;;;;;;6.40;1.80;;;19.40;66.70;;;;;;5050922;28;20027;-65
2023/06/28 02:41:55;;;;;;;5.90;1.73;;;19.30;66.70;;;;;;5064892;28;20457;-65
2023/06/28 02:44:20;;;;;;;4.60;1.70;;;19.30;66.90;;;;;;5057433;28;20043;-65
2023/06/28 02:47:18;;;;;;;4.95;1.60;;;19.30;67.20;;;;;;5074785;28;20031;-65
2023/06/28 02:49:44;;;;;;;4.50;1.80;;;19.30;67.50;;;;;;5034870;28;20025;-65
2023/06/28 02:52:11;;;;;;;4.78;1.55;;;19.20;67.60;;;;;;5056014;28;20040;-65
2023/06/28 02:54:37;;;;;;;5.25;1.63;;;19.20;67.40;;;;;;5041591;28;20021;-65
2023/06/28 02:57:08;;;;;;;7.70;1.60;;;19.20;67.40;;;;;;5056907;28;20103;-65
2023/06/28 02:59:51;;;;;;;4.07;1.50;;;19.20;68.20;;;;;;5057166;28;20024;-65
2023/06/28 03:02:17;;;;;;;5.72;1.95;;;19.10;67.60;;;;;;5055857;28;20027;-65
2023/06/28 03:04:43;;;;;;;6.80;1.92;;;19.10;67.80;;;;;;5040995;28;20044;-65
2023/06/28 03:07:16;;;;;;;5.40;1.67;;;19.10;67.80;;;;;;5056479;28;20032;-65
2023/06/28 03:09:43;;;;;;;4.88;1.70;;;19.00;67.80;;;;;;5047762;28;20024;-65
2023/06/28 03:12:10;;;;;;;4.32;1.85;;;19.10;67.80;;;;;;5074445;28;20024;-65
2023/06/28 03:14:36;;;;;;;3.58;1.70;;;19.00;67.90;;;;;;5074969;28;20028;-65
2023/06/28 03:17:02;;;;;;;4.80;1.75;;;19.00;68.10;;;;;;5040827;28;20345;-65
2023/06/28 03:19:29;;;;;;;4.68;1.88;;;19.00;68.10;;;;;;5056278;28;20031;-65
2023/06/28 03:21:55;;;;;;;5.13;1.60;;;19.00;68.10;;;;;;5073759;28;20090;-65
2023/06/28 03:24:21;;;;;;;4.38;1.50;;;19.00;68.20;;;;;;5055486;28;20024;-65
2023/06/28 03:26:47;;;;;;;4.05;1.88;;;19.00;68.20;;;;;;5056947;28;20028;-65
2023/06/28 03:29:12;;;;;;;6.85;1.80;;;19.00;68.30;;;;;;5056673;28;20060;-65
2023/06/28 03:31:39;;;;;;;5.40;1.92;;;19.00;68.60;;;;;;5039825;28;20029;-65
2023/06/28 03:34:05;;;;;;;4.28;1.60;;;19.00;68.70;;;;;;5055839;28;20086;-65
2023/06/28 03:36:32;;;;;;;3.75;1.70;;;18.90;68.70;;;;;;5056423;28;20025;-65
2023/06/28 03:38:58;;;;;;;4.40;1.83;;;18.90;68.90;;;;;;5072821;28;20048;-66
2023/06/28 03:41:26;;;;;;;7.50;2.05;;;18.90;69.10;;;;;;5070844;28;20097;-65
2023/06/28 03:43:52;;;;;;;5.95;2.10;;;19.00;69.10;;;;;;5067995;28;20087;-65
2023/06/28 03:46:18;;;;;;;8.45;2.20;;;19.00;69.20;;;;;;5052706;28;20064;-65
2023/06/28 03:48:43;;;;;;;7.68;2.15;;;19.00;69.30;;;;;;5047254;28;20310;-65
2023/06/28 03:51:10;;;;;;;7.45;2.25;;;19.00;69.40;;;;;;5052585;28;20036;-65
2023/06/28 03:53:36;;;;;;;6.32;2.33;;;19.00;69.60;;;;;;5050433;28;20036;-65
2023/06/28 03:56:03;;;;;;;5.38;2.08;;;19.00;69.80;;;;;;5054215;28;20108;-65
2023/06/28 03:58:29;;;;;;;6.18;2.15;;;19.00;70.00;;;;;;5047790;28;20516;-65
2023/06/28 04:00:55;;;;;;;6.78;2.38;;;19.00;70.00;;;;;;5048523;28;20028;-65
2023/06/28 04:03:21;;;;;;;6.25;2.53;;;19.00;70.10;;;;;;5025023;28;20032;-65
2023/06/28 04:05:46;;;;;;;7.88;2.70;;;19.00;70.20;;;;;;5038437;28;20032;-65
2023/06/28 04:08:14;;;;;;;5.95;2.53;;;19.00;70.40;;;;;;5043668;28;20020;-65
2023/06/28 04:10:41;;;;;;;7.25;2.60;;;19.10;70.50;;;;;;5057930;28;20329;-65
2023/06/28 04:13:07;;;;;;;6.28;2.50;;;19.10;70.60;;;;;;5037456;28;20389;-65
2023/06/28 04:15:33;;;;;;;5.55;2.35;;;19.10;70.50;;;;;;5057294;28;20059;-65
2023/06/28 04:17:58;;;;;;;5.88;2.25;;;19.10;70.60;;;;;;5044695;28;20028;-65
2023/06/28 04:20:24;;;;;;;7.82;2.47;;;19.10;70.70;;;;;;5034001;28;20021;-64
2023/06/28 04:22:50;;;;;;;5.88;2.10;;;19.10;70.80;;;;;;5057872;28;20029;-65
2023/06/28 04:25:16;;;;;;;5.68;2.30;;;19.10;71.00;;;;;;5054310;28;20033;-65
2023/06/28 04:27:41;;;;;;;5.50;2.25;;;19.10;71.00;;;;;;5059231;28;20028;-65
2023/06/28 04:30:08;;;;;;;6.03;2.30;;;19.00;70.70;;;;;;5062838;28;20021;-65
2023/06/28 04:32:33;;;;;;;5.47;2.00;;;19.10;70.50;;;;;;5066385;28;20025;-65
2023/06/28 04:34:59;;;;;;;6.78;2.60;;;19.00;70.50;;;;;;5057409;28;20028;-65
2023/06/28 04:37:31;;;;;;;5.90;2.20;;;19.00;70.60;;;;;;5055810;28;20025;-65
2023/06/28 04:40:03;;;;;;;6.85;2.45;;;19.00;70.40;;;;;;5049837;28;20159;-65
2023/06/28 04:42:29;;;;;;;5.38;2.45;;;19.00;70.30;;;;;;5019023;28;20044;-65
2023/06/28 04:44:59;;;;;;;7.15;3.00;;;19.00;70.20;;;;;;5062952;28;20029;-65
2023/06/28 04:47:28;;;;;;;6.30;2.40;;;19.00;70.40;;;;;;5054298;28;20371;-65
2023/06/28 04:49:54;;;;;;;6.22;1.80;;;19.00;70.50;;;;;;5056534;28;20025;-65
2023/06/28 04:52:21;;;;;;;8.90;2.47;;;19.00;70.50;;;;;;5060271;28;20044;-65
2023/06/28 04:54:47;;;;;;;6.93;2.50;;;19.00;70.40;;;;;;5071855;28;20470;-65
2023/06/28 04:57:15;;;;;;;6.57;2.70;;;19.00;70.50;;;;;;5055539;28;20028;-65
2023/06/28 04:59:42;;;;;;;6.60;2.72;;;19.00;70.70;;;;;;5072821;28;20039;-65
2023/06/28 05:02:09;;;;;;;7.53;3.15;;;19.00;70.60;;;;;;5067793;28;20029;-65
2023/06/28 05:04:36;;;;;;;7.90;3.40;;;19.00;70.60;;;;;;5073185;28;20477;-66
2023/06/28 05:07:04;;;;;;;6.40;2.60;;;19.00;70.70;;;;;;5069161;28;20400;-65
2023/06/28 05:09:34;;;;;;;6.13;2.80;;;19.00;70.70;;;;;;5066355;28;20032;-64
2023/06/28 05:12:01;;;;;;;8.75;2.97;;;19.00;70.70;;;;;;5074016;28;20380;-64
2023/06/28 05:14:29;;;;;;;8.35;2.95;;;19.10;70.80;;;;;;5075704;28;20362;-64
2023/06/28 05:16:55;;;;;;;7.93;3.08;;;19.10;71.00;;;;;;5075428;28;20025;-64
2023/06/28 05:19:22;;;;;;;8.55;3.20;;;19.10;71.20;;;;;;5075233;28;20348;-63
2023/06/28 05:21:48;;;;;;;8.25;3.28;;;19.10;71.40;;;;;;5072813;28;20081;-64
2023/06/28 05:24:18;;;;;;;6.35;2.90;;;19.10;71.20;;;;;;5076430;28;20024;-64
2023/06/28 05:26:44;;;;;;;6.72;3.25;;;19.10;71.10;;;;;;5059467;28;20472;-64
2023/06/28 05:29:10;;;;;;;8.13;3.15;;;19.10;71.10;;;;;;5076166;28;20127;-65
2023/06/28 05:31:37;;;;;;;9.00;3.22;;;19.10;71.10;;;;;;5059381;28;20025;-65
2023/06/28 05:34:03;;;;;;;6.20;2.85;;;19.10;72.00;;;;;;5072865;28;20115;-65
2023/06/28 05:36:28;;;;;;;8.70;3.30;;;19.00;71.20;;;;;;5042828;28;20489;-65
2023/06/28 05:38:56;;;;;;;7.35;3.53;;;19.00;71.20;;;;;;5076190;28;20025;-66
2023/06/28 05:41:22;;;;;;;7.05;3.35;;;19.00;71.40;;;;;;5076509;28;20033;-65
2023/06/28 05:43:48;;;;;;;7.50;3.10;;;19.00;71.50;;;;;;5076194;28;20024;-64
2023/06/28 05:46:14;;;;;;;9.18;3.53;;;19.10;71.60;;;;;;5075041;28;20043;-64
2023/06/28 05:48:40;;;;;;;7.82;2.92;;;19.10;71.50;;;;;;5077590;28;20066;-64
2023/06/28 05:51:12;;;;;;;7.35;3.28;;;19.00;71.30;;;;;;5059285;28;20032;-64
2023/06/28 05:53:39;;;;;;;8.75;3.47;;;19.00;71.30;;;;;;5059320;28;20040;-64
2023/06/28 05:56:05;;;;;;;8.10;3.30;;;19.00;71.20;;;;;;5077508;28;20151;-65
2023/06/28 05:58:31;;;;;;;8.05;2.90;;;18.90;71.20;;;;;;5073363;28;20369;-64
2023/06/28 06:00:56;;;;;;;7.07;3.30;;;18.90;71.30;;;;;;5075667;28;20027;-64
2023/06/28 06:03:23;;;;;;;8.50;3.08;;;19.00;71.50;;;;;;5058480;28;20384;-64
2023/06/28 06:05:49;;;;;;;8.02;2.97;;;19.00;71.60;;;;;;5076141;28;20024;-64
2023/06/28 06:08:15;;;;;;;7.93;3.03;;;19.00;71.60;;;;;;5075375;28;20024;-64
2023/06/28 06:10:40;;;;;;;7.15;3.38;;;19.00;71.70;;;;;;5057570;28;20037;-64
2023/06/28 06:13:06;;;;;;;8.75;2.92;;;19.00;71.80;;;;;;5040243;28;20032;-64
2023/06/28 06:15:32;;;;;;;7.97;3.30;;;19.00;71.60;;;;;;5074415;28;20024;-64
2023/06/28 06:17:58;;;;;;;6.95;3.13;;;19.00;71.40;;;;;;5057833;28;20040;-64
2023/06/28 06:20:23;;;;;;;7.72;3.30;;;19.00;71.30;;;;;;5073096;28;20025;-64
2023/06/28 06:22:49;;;;;;;7.38;3.60;;;18.90;71.50;;;;;;5056557;28;20384;-64
2023/06/28 06:25:16;;;;;;;6.75;3.03;;;18.90;71.70;;;;;;5076315;28;20028;-64
2023/06/28 06:27:41;;;;;;;7.80;3.47;;;18.90;71.90;;;;;;5052060;28;20036;-64
2023/06/28 06:30:10;;;;;;;8.00;3.35;;;19.00;72.00;;;;;;5075468;28;20031;-64
2023/06/28 06:32:36;;;;;;;8.02;3.33;;;19.00;71.90;;;;;;5073513;28;20032;-64
2023/06/28 06:35:02;;;;;;;8.82;3.65;;;19.10;71.80;;;;;;5074956;28;20033;-64
2023/06/28 06:37:28;;;;;;;8.85;3.28;;;19.10;71.50;;;;;;5075389;28;20032;-64
2023/06/28 06:39:54;;;;;;;9.73;3.90;;;19.10;71.40;;;;;;5079083;28;20024;-64
2023/06/28 06:42:20;;;;;;;7.78;3.80;;;19.10;71.40;;;;;;5074613;28;20100;-64
2023/06/28 06:44:46;;;;;;;7.03;3.85;;;19.10;71.40;;;;;;5070418;28;20040;-64
2023/06/28 06:47:12;;;;;;;9.57;4.15;;;19.20;71.40;;;;;;5057229;28;20032;-64
2023/06/28 06:49:38;;;;;;;8.48;3.58;;;19.20;71.30;;;;;;5056042;28;20024;-64
2023/06/28 06:52:04;;;;;;;8.88;3.58;;;19.20;71.90;;;;;;5057289;28;20055;-64
2023/06/28 06:54:30;;;;;;;9.70;4.35;;;19.20;72.00;;;;;;5074918;28;20160;-63
2023/06/28 06:56:59;;;;;;;10.10;4.68;;;19.20;71.50;;;;;;5058056;28;20032;-64
2023/06/28 06:59:26;;;;;;;8.07;4.10;;;19.20;71.70;;;;;;5056316;28;20033;-65
2023/06/28 07:01:53;;;;;;;9.10;4.22;;;19.20;71.70;;;;;;5052825;28;20031;-65
2023/06/28 07:04:21;;;;;;;9.18;4.75;;;19.20;71.90;;;;;;5057427;28;20032;-66
2023/06/28 07:06:47;;;;;;;11.15;3.92;;;19.20;72.10;;;;;;5055025;28;20028;-65
2023/06/28 07:09:14;;;;;;;9.30;4.95;;;19.20;72.20;;;;;;5057167;28;20051;-65
2023/06/28 07:11:41;;;;;;;9.15;4.43;;;19.20;72.30;;;;;;5072090;28;20361;-66
2023/06/28 07:14:07;;;;;;;9.35;4.43;;;19.20;72.20;;;;;;5041072;28;20032;-65
2023/06/28 07:16:34;;;;;;;7.97;3.90;;;19.20;72.30;;;;;;5075559;28;20021;-65
2023/06/28 07:18:59;;;;;;;9.02;4.57;;;19.20;72.30;;;;;;5057831;28;20029;-65
2023/06/28 07:21:25;;;;;;;9.32;4.95;;;19.20;72.20;;;;;;5072734;28;20515;-65
2023/06/28 07:23:51;;;;;;;9.57;5.32;;;19.30;72.30;;;;;;5075881;28;20112;-65
2023/06/28 07:26:18;;;;;;;10.60;4.57;;;19.30;72.30;;;;;;5057866;28;20433;-65
2023/06/28 07:28:45;;;;;;;8.63;4.65;;;19.30;72.30;;;;;;5074791;28;20377;-65
2023/06/28 07:31:11;;;;;;;9.93;4.50;;;19.30;72.40;;;;;;5075499;28;20103;-65
2023/06/28 07:33:36;;;;;;;9.55;4.65;;;19.30;72.30;;;;;;5075180;28;20529;-65
2023/06/28 07:36:02;;;;;;;10.48;4.93;;;19.40;72.30;;;;;;5073483;28;20024;-65
2023/06/28 07:38:28;;;;;;;12.35;4.30;;;19.40;72.30;;;;;;5057289;28;20032;-66
2023/06/28 07:40:54;;;;;;;9.57;5.38;;;19.40;72.40;;;;;;5075163;28;20422;-66
2023/06/28 07:43:19;;;;;;;11.70;4.95;;;19.40;72.40;;;;;;5074997;28;20028;-66
2023/06/28 07:45:46;;;;;;;11.65;4.93;;;19.40;72.30;;;;;;5056608;28;20020;-66
2023/06/28 07:48:11;;;;;;;11.77;4.57;;;19.50;72.30;;;;;;5074289;28;20021;-67
2023/06/28 07:50:38;;;;;;;11.98;5.18;;;19.50;72.30;;;;;;5057484;28;20468;-66
2023/06/28 07:53:04;;;;;;;10.98;5.05;;;19.40;72.40;;;;;;5040189;28;20123;-66
2023/06/28 07:55:30;;;;;;;10.75;4.88;;;19.40;72.40;;;;;;5057220;28;20100;-67
2023/06/28 07:57:57;;;;;;;9.82;4.78;;;19.50;72.40;;;;;;5038737;28;20402;-66
2023/06/28 08:00:28;;;;;;;10.18;4.72;;;19.40;72.30;;;;;;5057196;28;20103;-66
2023/06/28 08:02:54;;;;;;;;;;;19.50;72.50;;;;;;5075025;28;20395;-65
2023/06/28 08:05:20;;;;;;;9.27;4.50;;;19.50;72.40;;;;;;5056832;28;19991;-66
2023/06/28 08:07:46;;;;;;;8.43;4.28;;;19.40;72.50;;;;;;5072934;28;20034;-65
2023/06/28 08:10:52;;;;;;;11.52;4.32;;;19.50;72.50;;;;;;5056858;28;20043;-65
2023/06/28 08:13:18;;;;;;;7.82;4.13;;;19.50;72.40;;;;;;5056899;28;20513;-65
2023/06/28 08:15:44;;;;;;;8.82;4.78;;;19.50;72.40;;;;;;5056971;28;20146;-65
2023/06/28 08:18:10;;;;;;;10.13;4.22;;;19.50;72.50;;;;;;5072464;28;20085;-66
2023/06/28 08:20:36;;;;;;;10.02;4.57;;;19.50;72.60;;;;;;5074494;28;20017;-66
2023/06/28 08:23:03;;;;;;;8.93;4.53;;;19.50;72.70;;;;;;5073242;28;20036;-66
2023/06/28 08:25:29;;;;;;;10.65;5.00;;;19.60;72.70;;;;;;5074254;28;20055;-66
2023/06/28 08:27:54;;;;;;;11.90;4.32;;;19.60;72.60;;;;;;5073295;28;20032;-64
2023/06/28 08:30:20;;;;;;;8.73;4.32;;;19.70;72.40;;;;;;5072895;28;20028;-66
2023/06/28 08:32:46;;;;;;;8.57;4.05;;;19.70;72.30;;;;;;5074241;28;20372;-66
2023/06/28 08:35:12;;;;;;;11.77;5.38;;;19.80;72.00;;;;;;5056626;28;20028;-66
2023/06/28 08:37:37;;;;;;;9.50;4.60;;;19.80;72.00;;;;;;5055820;28;20086;-66
2023/06/28 08:40:04;;;;;;;12.20;4.97;;;19.80;72.10;;;;;;5073337;28;20038;-66
2023/06/28 08:42:33;;;;;;;11.85;4.93;;;19.90;72.00;;;;;;5074183;28;20029;-66
2023/06/28 08:45:01;;;;;;;9.73;4.20;;;19.90;71.90;;;;;;5056318;28;20372;-66
2023/06/28 08:47:30;;;;;;;10.00;4.97;;;19.90;71.80;;;;;;5039168;28;20024;-66
2023/06/28 08:49:56;;;;;;;11.30;4.60;;;20.00;71.60;;;;;;5072578;28;20031;-66
2023/06/28 08:52:24;;;;;;;9.95;4.82;;;20.00;71.60;;;;;;5073472;28;20032;-65
2023/06/28 08:54:52;;;;;;;10.55;4.72;;;20.10;71.80;;;;;;5073657;28;20433;-65
2023/06/28 08:57:17;;;;;;;7.93;3.95;;;20.10;72.00;;;;;;5055914;28;20029;-65
2023/06/28 08:59:44;;;;;;;10.25;4.40;;;20.10;71.90;;;;;;5038000;28;20392;-65
2023/06/28 09:02:15;;;;;;;9.18;4.10;;;20.20;71.70;;;;;;5073691;28;20084;-64
2023/06/28 09:04:42;;;;;;;11.18;4.60;;;20.20;71.30;;;;;;5055966;28;20044;-64
2023/06/28 09:07:08;;;;;;;9.38;4.50;;;20.20;71.00;;;;;;5073705;28;20040;-65
2023/06/28 09:09:35;;;;;;;9.48;4.55;;;20.20;70.90;;;;;;5055136;28;20021;-65
2023/06/28 09:12:02;;;;;;;11.63;4.55;;;20.30;71.20;;;;;;5073118;28;20089;-65
2023/06/28 09:14:28;;;;;;;11.80;5.43;;;20.30;70.90;;;;;;5056049;28;20025;-65
2023/06/28 09:16:54;;;;;;;10.32;4.15;;;20.30;70.70;;;;;;5073913;28;20049;-65
2023/06/28 09:19:20;;;;;;;11.55;4.25;;;20.30;70.80;;;;;;5055254;28;20456;-65
2023/06/28 09:21:46;;;;;;;11.18;5.20;;;20.20;70.40;;;;;;5072563;28;20021;-65
2023/06/28 09:24:12;;;;;;;10.68;4.72;;;20.30;70.50;;;;;;5056043;28;20357;-65
2023/06/28 09:26:41;;;;;;;12.85;5.28;;;20.20;70.60;;;;;;5039167;28;20032;-65
2023/06/28 09:29:09;;;;;;;9.43;4.80;;;20.20;70.50;;;;;;5055797;28;20063;-64
2023/06/28 09:31:44;;;;;;;11.05;4.57;;;20.20;70.50;;;;;;5072041;28;20032;-65
2023/06/28 09:34:10;;;;;;;7.85;4.10;;;20.20;70.70;;;;;;5056014;28;20446;-64
2023/06/28 09:36:37;;;;;;;10.55;4.20;;;20.20;70.70;;;;;;5055844;28;20028;-65
2023/06/28 09:39:04;;;;;;;9.35;4.55;;;20.20;70.60;;;;;;5073626;28;20044;-65
2023/06/28 09:41:42;;;;;;;12.23;5.22;;;20.20;70.60;;;;;;5071877;28;20029;-65
2023/06/28 09:44:10;;;;;;;14.52;4.82;;;20.30;70.60;;;;;;5073451;28;20107;-65
2023/06/28 09:46:45;;;;;;;10.88;4.90;;;20.30;70.50;;;;;;5073227;28;20090;-65
2023/06/28 09:49:22;;;;;;;11.02;5.22;;;20.40;70.50;;;;;;5056163;28;20056;-65
2023/06/28 09:52:06;;;;;;;14.40;4.85;;;20.50;70.30;;;;;;5053370;28;20070;-65
2023/06/28 09:54:44;;;;;;;11.27;5.20;;;20.50;69.90;;;;;;5073035;28;20060;-65
2023/06/28 09:57:10;;;;;;;11.85;5.10;;;20.50;69.80;;;;;;5069326;28;20078;-65
2023/06/28 09:59:36;;;;;;;9.73;4.38;;;20.50;69.50;;;;;;5068558;28;20028;-66
2023/06/28 10:02:07;;;;;;;8.82;4.68;;;20.60;69.40;;;;;;5053941;28;20472;-65
2023/06/28 10:04:37;;;;;;;8.43;4.60;;;20.50;69.20;;;;;;5071271;28;20029;-65
2023/06/28 10:07:05;;;;;;;10.13;5.27;;;20.50;69.30;;;;;;5054645;28;20505;-65
2023/06/28 10:09:37;;;;;;;12.13;5.55;;;20.60;69.40;;;;;;5071957;28;20111;-66
2023/06/28 10:12:09;;;;;;;12.73;5.38;;;20.50;69.30;;;;;;5070219;28;20033;-65
2023/06/28 10:14:44;;;;;;;12.27;5.40;;;20.60;69.50;;;;;;5054922;28;20029;-65
2023/06/28 10:17:11;;;;;;;9.32;4.68;;;20.60;70.20;;;;;;5068446;28;20033;-65
2023/06/28 10:19:37;;;;;;;10.60;5.32;;;20.60;69.50;;;;;;5070959;28;20023;-65
2023/06/28 10:22:04;;;;;;;10.15;5.28;;;20.60;69.50;;;;;;5054208;28;21302;-65
2023/06/28 10:24:35;;;;;;;9.73;5.13;;;20.60;69.60;;;;;;5071867;28;20357;-65
2023/06/28 10:27:02;;;;;;;13.93;5.55;;;20.70;69.60;;;;;;5070863;28;20028;-65
2023/06/28 10:29:29;;;;;;;10.25;5.57;;;20.70;69.60;;;;;;5071708;28;20056;-65
2023/06/28 10:31:56;;;;;;;10.88;5.80;;;20.70;69.50;;;;;;5054909;28;20029;-66
2023/06/28 10:34:22;;;;;;;11.35;5.57;;;20.80;69.50;;;;;;5051908;28;20404;-65
2023/06/28 10:36:48;;;;;;;12.63;5.55;;;20.90;69.30;;;;;;5072862;28;20032;-65
2023/06/28 10:39:15;;;;;;;10.23;5.38;;;21.00;69.00;;;;;;5055048;28;20024;-65
2023/06/28 10:41:41;;;;;;;8.43;5.47;;;21.00;68.60;;;;;;5071690;28;20060;-65
2023/06/28 10:44:07;;;;;;;8.52;5.13;;;21.00;68.00;;;;;;5052564;28;20410;-65
2023/06/28 10:46:35;;;;;;;8.77;5.05;;;21.20;67.90;;;;;;5054366;28;20107;-66
2023/06/28 10:49:03;;;;;;;12.07;5.43;;;21.30;67.50;;;;;;5072126;28;20043;-65
2023/06/28 10:51:34;;;;;;;10.82;5.55;;;21.40;67.00;;;;;;5066098;28;20063;-65
2023/06/28 10:54:14;;;;;;;10.40;4.72;;;21.60;66.60;;;;;;5048432;28;20045;-65
2023/06/28 10:56:43;;;;;;;10.17;4.63;;;21.70;66.30;;;;;;5032980;28;20029;-65
2023/06/28 10:59:09;;;;;;;8.98;4.72;;;21.80;66.10;;;;;;5051614;28;20404;-65
2023/06/28 11:01:37;;;;;;;11.10;4.63;;;21.90;66.00;;;;;;5046159;28;20037;-65
2023/06/28 11:04:26;;;;;;;12.02;5.72;;;22.00;65.70;;;;;;5046255;28;20025;-64
2023/06/28 11:07:06;;;;;;;10.80;5.68;;;22.10;65.20;;;;;;5051707;28;20029;-64
2023/06/28 11:09:32;;;;;;;10.32;5.25;;;22.30;65.00;;;;;;5050130;28;20095;-65
2023/06/28 11:11:59;;;;;;;12.88;6.20;;;22.30;64.60;;;;;;5046857;28;20044;-65
2023/06/28 11:14:27;;;;;;;11.48;5.35;;;22.40;64.50;;;;;;5047381;28;20032;-65
2023/06/28 11:17:14;;;;;;;11.88;5.95;;;22.50;64.20;;;;;;5047237;28;20036;-65
2023/06/28 11:19:44;;;;;;;10.65;5.32;;;22.60;64.10;;;;;;5049877;28;20029;-66
2023/06/28 11:22:11;;;;;;;10.00;5.60;;;22.70;63.90;;;;;;5047241;28;20280;-66
2023/06/28 11:24:36;;;;;;;12.52;5.60;;;22.80;63.80;;;;;;5049070;28;20083;-66
2023/06/28 11:27:08;;;;;;;9.10;4.78;;;22.80;63.80;;;;;;5047823;28;20104;-66
2023/06/28 11:29:51;;;;;;;11.23;5.45;;;22.90;63.90;;;;;;5047931;28;20025;-66
2023/06/28 11:32:23;;;;;;;12.80;6.05;;;23.00;63.80;;;;;;5048738;28;20036;-66
2023/06/28 11:34:49;;;;;;;10.73;5.30;;;23.00;63.30;;;;;;5048454;28;20037;-66
2023/06/28 11:37:17;;;;;;;9.15;5.30;;;23.10;63.30;;;;;;5047562;28;20109;-66
2023/06/28 11:39:44;;;;;;;11.40;5.45;;;23.10;63.40;;;;;;5049065;28;20036;-66
2023/06/28 11:42:14;;;;;;;10.52;5.70;;;23.00;63.20;;;;;;5048223;28;20029;-66
2023/06/28 11:44:48;;;;;;;11.40;5.57;;;23.00;63.20;;;;;;5048469;28;20039;-66
2023/06/28 11:47:20;;;;;;;9.77;5.60;;;22.90;63.10;;;;;;5048788;28;20314;-66
2023/06/28 11:49:46;;;;;;;11.00;5.90;;;23.00;63.20;;;;;;5042002;28;20499;-66
2023/06/28 11:52:15;;;;;;;10.25;5.15;;;22.90;63.20;;;;;;5052778;28;20044;-66
2023/06/28 11:54:42;;;;;;;10.05;6.05;;;23.00;63.20;;;;;;5066192;28;20078;-66
2023/06/28 11:57:09;;;;;;;10.05;5.50;;;22.90;63.00;;;;;;5067090;28;20056;-66
2023/06/28 11:59:34;;;;;;;11.75;6.20;;;22.90;63.10;;;;;;5068713;28;20067;-66
2023/06/28 12:02:05;;;;;;;11.43;6.22;;;22.90;63.20;;;;;;5050277;28;20441;-66
2023/06/28 12:04:32;;;;;;;10.13;5.10;;;22.80;63.30;;;;;;5064678;28;20052;-66
2023/06/28 12:07:01;;;;;;;12.93;6.03;;;22.80;63.70;;;;;;5050888;28;20036;-66
2023/06/28 12:09:29;;;;;;;10.23;5.18;;;22.70;64.00;;;;;;5068023;28;20020;-66
2023/06/28 12:11:59;;;;;;;13.40;6.18;;;22.60;63.80;;;;;;5066500;28;20036;-66
2023/06/28 12:14:36;;;;;;;9.00;5.45;;;22.60;63.90;;;;;;5068065;28;20044;-66
2023/06/28 12:17:03;;;;;;;11.45;6.07;;;22.60;64.10;;;;;;5067044;28;20024;-66
2023/06/28 12:19:33;;;;;;;12.88;6.38;;;22.60;64.10;;;;;;5067016;28;20436;-66
2023/06/28 12:22:02;;;;;;;11.40;6.55;;;22.50;64.00;;;;;;5050304;28;20032;-65
2023/06/28 12:24:28;;;;;;;11.15;6.28;;;22.50;64.00;;;;;;5066681;28;20020;-66
2023/06/28 12:26:56;;;;;;;9.70;6.07;;;22.50;64.00;;;;;;5030737;28;20036;-66
2023/06/28 12:29:24;;;;;;;10.35;5.72;;;22.60;64.10;;;;;;5040315;28;20055;-66
2023/06/28 12:31:52;;;;;;;9.93;5.60;;;22.60;63.90;;;;;;5048522;28;20291;-66
2023/06/28 12:34:26;;;;;;;12.55;6.60;;;22.60;63.80;;;;;;5050145;28;20041;-66
2023/06/28 12:37:00;;;;;;;12.85;6.20;;;22.70;63.70;;;;;;5049341;28;20024;-66
2023/06/28 12:39:28;;;;;;;13.35;6.50;;;22.80;63.60;;;;;;5057461;28;20029;-66
2023/06/28 12:42:18;;;;;;;12.50;6.47;;;22.80;63.70;;;;;;5056143;28;20033;-66
2023/06/28 12:44:50;;;;;;;11.65;6.82;;;22.80;63.70;;;;;;5034812;28;20494;-66
2023/06/28 12:47:17;;;;;;;10.82;6.22;;;22.80;63.30;;;;;;5068470;28;20377;-66